sensor_id;sensor_type;location;lat;lon;timestamp;P1;durP1;ratioP1;P2;durP2;ratioP2
177;SDS011;77;48.792;9.032;2022-10-23T00:02:24;7.50;;;3.27;;
177;SDS011;77;48.792;9.032;2022-10-23T00:04:51;5.30;;;3.30;;
177;SDS011;77;48.792;9.032;2022-10-23T00:07:16;10.00;;;3.67;;
177;SDS011;77;48.792;9.032;2022-10-23T00:09:41;7.53;;;3.30;;
177;SDS011;77;48.792;9.032;2022-10-23T00:12:06;6.13;;;3.33;;
177;SDS011;77;48.792;9.032;2022-10-23T00:14:32;9.10;;;3.50;;
177;SDS011;77;48.792;9.032;2022-10-23T00:16:57;7.60;;;3.50;;
177;SDS011;77;48.792;9.032;2022-10-23T00:19:22;11.80;;;3.83;;
177;SDS011;77;48.792;9.032;2022-10-23T00:21:49;6.67;;;3.60;;
177;SDS011;77;48.792;9.032;2022-10-23T00:24:14;9.80;;;3.60;;
177;SDS011;77;48.792;9.032;2022-10-23T00:26:39;5.33;;;3.20;;
177;SDS011;77;48.792;9.032;2022-10-23T00:29:05;8.33;;;3.33;;
177;SDS011;77;48.792;9.032;2022-10-23T00:31:31;9.57;;;3.50;;
177;SDS011;77;48.792;9.032;2022-10-23T00:33:56;7.50;;;3.67;;
177;SDS011;77;48.792;9.032;2022-10-23T00:36:21;7.27;;;3.67;;
177;SDS011;77;48.792;9.032;2022-10-23T00:38:48;5.90;;;3.10;;
177;SDS011;77;48.792;9.032;2022-10-23T00:41:15;6.60;;;3.43;;
177;SDS011;77;48.792;9.032;2022-10-23T00:43:54;5.97;;;3.37;;
177;SDS011;77;48.792;9.032;2022-10-23T00:46:20;6.93;;;3.40;;
177;SDS011;77;48.792;9.032;2022-10-23T00:48:45;8.33;;;3.73;;
177;SDS011;77;48.792;9.032;2022-10-23T00:51:10;11.33;;;3.80;;
177;SDS011;77;48.792;9.032;2022-10-23T00:53:35;8.57;;;3.50;;
177;SDS011;77;48.792;9.032;2022-10-23T00:56:02;7.40;;;3.90;;
177;SDS011;77;48.792;9.032;2022-10-23T00:58:28;7.27;;;3.80;;
177;SDS011;77;48.792;9.032;2022-10-23T01:00:54;9.60;;;4.47;;
177;SDS011;77;48.792;9.032;2022-10-23T01:03:20;9.13;;;3.77;;
177;SDS011;77;48.792;9.032;2022-10-23T01:05:48;7.53;;;4.17;;
177;SDS011;77;48.792;9.032;2022-10-23T01:08:15;6.77;;;3.87;;
177;SDS011;77;48.792;9.032;2022-10-23T01:10:42;7.40;;;4.10;;
177;SDS011;77;48.792;9.032;2022-10-23T01:13:11;7.87;;;4.03;;
177;SDS011;77;48.792;9.032;2022-10-23T01:15:40;8.00;;;3.90;;
177;SDS011;77;48.792;9.032;2022-10-23T01:18:09;6.20;;;3.63;;
177;SDS011;77;48.792;9.032;2022-10-23T01:20:39;10.17;;;4.17;;
177;SDS011;77;48.792;9.032;2022-10-23T01:23:10;7.37;;;4.13;;
177;SDS011;77;48.792;9.032;2022-10-23T01:25:41;6.07;;;3.70;;
177;SDS011;77;48.792;9.032;2022-10-23T01:28:12;6.47;;;3.90;;
177;SDS011;77;48.792;9.032;2022-10-23T01:30:39;7.53;;;3.80;;
177;SDS011;77;48.792;9.032;2022-10-23T01:33:07;9.90;;;3.90;;
177;SDS011;77;48.792;9.032;2022-10-23T01:35:34;7.83;;;3.80;;
177;SDS011;77;48.792;9.032;2022-10-23T01:38:02;5.40;;;3.70;;
177;SDS011;77;48.792;9.032;2022-10-23T01:40:31;5.90;;;3.50;;
177;SDS011;77;48.792;9.032;2022-10-23T01:42:58;6.00;;;3.40;;
177;SDS011;77;48.792;9.032;2022-10-23T01:45:27;5.60;;;3.60;;
177;SDS011;77;48.792;9.032;2022-10-23T01:47:56;10.40;;;3.73;;
177;SDS011;77;48.792;9.032;2022-10-23T01:50:21;8.83;;;3.50;;
177;SDS011;77;48.792;9.032;2022-10-23T01:52:48;8.13;;;3.80;;
177;SDS011;77;48.792;9.032;2022-10-23T01:55:13;7.30;;;3.50;;
177;SDS011;77;48.792;9.032;2022-10-23T01:57:39;7.20;;;3.40;;
177;SDS011;77;48.792;9.032;2022-10-23T02:00:06;6.00;;;3.70;;
177;SDS011;77;48.792;9.032;2022-10-23T02:02:34;12.03;;;4.07;;
177;SDS011;77;48.792;9.032;2022-10-23T02:05:01;7.87;;;3.63;;
177;SDS011;77;48.792;9.032;2022-10-23T02:07:27;6.30;;;3.53;;
177;SDS011;77;48.792;9.032;2022-10-23T02:09:52;6.60;;;3.43;;
177;SDS011;77;48.792;9.032;2022-10-23T02:12:21;7.27;;;3.50;;
177;SDS011;77;48.792;9.032;2022-10-23T02:14:50;6.33;;;3.30;;
177;SDS011;77;48.792;9.032;2022-10-23T02:17:19;6.07;;;3.37;;
177;SDS011;77;48.792;9.032;2022-10-23T02:19:48;13.23;;;3.80;;
177;SDS011;77;48.792;9.032;2022-10-23T02:22:16;9.33;;;3.73;;
177;SDS011;77;48.792;9.032;2022-10-23T02:24:43;7.73;;;3.20;;
177;SDS011;77;48.792;9.032;2022-10-23T02:27:11;5.40;;;3.30;;
177;SDS011;77;48.792;9.032;2022-10-23T02:29:38;5.60;;;3.80;;
177;SDS011;77;48.792;9.032;2022-10-23T02:32:04;6.20;;;3.60;;
177;SDS011;77;48.792;9.032;2022-10-23T02:34:30;9.27;;;3.60;;
177;SDS011;77;48.792;9.032;2022-10-23T02:36:57;7.80;;;3.63;;
177;SDS011;77;48.792;9.032;2022-10-23T02:39:22;7.77;;;3.73;;
177;SDS011;77;48.792;9.032;2022-10-23T02:41:50;6.67;;;3.40;;
177;SDS011;77;48.792;9.032;2022-10-23T02:44:27;5.90;;;3.40;;
177;SDS011;77;48.792;9.032;2022-10-23T02:46:58;5.87;;;3.20;;
177;SDS011;77;48.792;9.032;2022-10-23T02:49:28;6.90;;;3.90;;
177;SDS011;77;48.792;9.032;2022-10-23T02:51:59;9.00;;;3.53;;
177;SDS011;77;48.792;9.032;2022-10-23T02:54:33;5.80;;;3.40;;
177;SDS011;77;48.792;9.032;2022-10-23T02:57:02;10.47;;;3.27;;
177;SDS011;77;48.792;9.032;2022-10-23T02:59:30;6.60;;;3.17;;
177;SDS011;77;48.792;9.032;2022-10-23T03:02:00;7.77;;;3.50;;
177;SDS011;77;48.792;9.032;2022-10-23T03:04:27;6.90;;;3.33;;
177;SDS011;77;48.792;9.032;2022-10-23T03:06:53;8.27;;;3.40;;
177;SDS011;77;48.792;9.032;2022-10-23T03:09:20;5.93;;;3.40;;
177;SDS011;77;48.792;9.032;2022-10-23T03:11:45;5.30;;;3.03;;
177;SDS011;77;48.792;9.032;2022-10-23T03:14:10;7.57;;;3.50;;
177;SDS011;77;48.792;9.032;2022-10-23T03:16:37;5.07;;;3.30;;
177;SDS011;77;48.792;9.032;2022-10-23T03:19:02;6.80;;;3.30;;
177;SDS011;77;48.792;9.032;2022-10-23T03:21:27;6.20;;;3.10;;
177;SDS011;77;48.792;9.032;2022-10-23T03:23:52;6.13;;;3.53;;
177;SDS011;77;48.792;9.032;2022-10-23T03:26:19;7.40;;;3.37;;
177;SDS011;77;48.792;9.032;2022-10-23T03:28:44;5.10;;;3.20;;
177;SDS011;77;48.792;9.032;2022-10-23T03:31:09;5.47;;;3.10;;
177;SDS011;77;48.792;9.032;2022-10-23T03:33:34;5.60;;;3.53;;
177;SDS011;77;48.792;9.032;2022-10-23T03:36:00;5.20;;;3.33;;
177;SDS011;77;48.792;9.032;2022-10-23T03:38:25;5.60;;;3.23;;
177;SDS011;77;48.792;9.032;2022-10-23T03:40:50;8.33;;;3.63;;
177;SDS011;77;48.792;9.032;2022-10-23T03:43:17;7.20;;;3.30;;
177;SDS011;77;48.792;9.032;2022-10-23T03:45:42;6.23;;;3.30;;
177;SDS011;77;48.792;9.032;2022-10-23T03:48:07;6.57;;;3.33;;
177;SDS011;77;48.792;9.032;2022-10-23T03:50:32;8.47;;;3.37;;
177;SDS011;77;48.792;9.032;2022-10-23T03:52:58;7.87;;;3.70;;
177;SDS011;77;48.792;9.032;2022-10-23T03:55:23;6.57;;;3.70;;
177;SDS011;77;48.792;9.032;2022-10-23T03:57:48;7.07;;;3.37;;
177;SDS011;77;48.792;9.032;2022-10-23T04:00:15;5.20;;;3.20;;
177;SDS011;77;48.792;9.032;2022-10-23T04:02:40;5.00;;;3.23;;
177;SDS011;77;48.792;9.032;2022-10-23T04:05:06;5.33;;;3.27;;
177;SDS011;77;48.792;9.032;2022-10-23T04:07:31;5.10;;;2.87;;
177;SDS011;77;48.792;9.032;2022-10-23T04:09:56;7.30;;;3.17;;
177;SDS011;77;48.792;9.032;2022-10-23T04:12:21;5.87;;;3.27;;
177;SDS011;77;48.792;9.032;2022-10-23T04:14:47;7.83;;;3.10;;
177;SDS011;77;48.792;9.032;2022-10-23T04:17:13;8.83;;;3.40;;
177;SDS011;77;48.792;9.032;2022-10-23T04:19:38;6.93;;;3.23;;
177;SDS011;77;48.792;9.032;2022-10-23T04:22:04;6.33;;;3.30;;
177;SDS011;77;48.792;9.032;2022-10-23T04:24:29;6.37;;;3.27;;
177;SDS011;77;48.792;9.032;2022-10-23T04:26:54;11.17;;;3.37;;
177;SDS011;77;48.792;9.032;2022-10-23T04:29:19;7.07;;;3.40;;
177;SDS011;77;48.792;9.032;2022-10-23T04:31:45;5.33;;;3.20;;
177;SDS011;77;48.792;9.032;2022-10-23T04:34:11;5.87;;;3.20;;
177;SDS011;77;48.792;9.032;2022-10-23T04:36:37;7.00;;;3.60;;
177;SDS011;77;48.792;9.032;2022-10-23T04:39:02;9.30;;;3.63;;
177;SDS011;77;48.792;9.032;2022-10-23T04:41:27;6.13;;;3.10;;
177;SDS011;77;48.792;9.032;2022-10-23T04:43:52;5.80;;;3.20;;
177;SDS011;77;48.792;9.032;2022-10-23T04:46:17;7.03;;;3.37;;
177;SDS011;77;48.792;9.032;2022-10-23T04:48:43;7.87;;;3.20;;
177;SDS011;77;48.792;9.032;2022-10-23T04:51:09;5.60;;;3.03;;
177;SDS011;77;48.792;9.032;2022-10-23T04:53:34;7.27;;;3.00;;
177;SDS011;77;48.792;9.032;2022-10-23T04:56:00;7.53;;;2.90;;
177;SDS011;77;48.792;9.032;2022-10-23T04:58:26;6.13;;;3.00;;
177;SDS011;77;48.792;9.032;2022-10-23T05:00:51;4.70;;;2.90;;
177;SDS011;77;48.792;9.032;2022-10-23T05:03:17;12.00;;;3.37;;
177;SDS011;77;48.792;9.032;2022-10-23T05:05:42;5.53;;;3.17;;
177;SDS011;77;48.792;9.032;2022-10-23T05:08:09;5.53;;;2.67;;
177;SDS011;77;48.792;9.032;2022-10-23T05:10:34;5.10;;;2.97;;
177;SDS011;77;48.792;9.032;2022-10-23T05:13:00;4.83;;;2.90;;
177;SDS011;77;48.792;9.032;2022-10-23T05:15:25;8.50;;;2.70;;
177;SDS011;77;48.792;9.032;2022-10-23T05:17:51;6.50;;;2.83;;
177;SDS011;77;48.792;9.032;2022-10-23T05:20:20;4.10;;;2.80;;
177;SDS011;77;48.792;9.032;2022-10-23T05:22:45;6.07;;;3.20;;
177;SDS011;77;48.792;9.032;2022-10-23T05:25:13;4.23;;;2.60;;
177;SDS011;77;48.792;9.032;2022-10-23T05:27:38;5.20;;;2.97;;
177;SDS011;77;48.792;9.032;2022-10-23T05:30:04;5.63;;;2.50;;
177;SDS011;77;48.792;9.032;2022-10-23T05:32:29;7.50;;;2.70;;
177;SDS011;77;48.792;9.032;2022-10-23T05:34:55;10.93;;;2.77;;
177;SDS011;77;48.792;9.032;2022-10-23T05:37:20;6.50;;;2.33;;
177;SDS011;77;48.792;9.032;2022-10-23T05:39:46;4.20;;;2.40;;
177;SDS011;77;48.792;9.032;2022-10-23T05:42:12;8.23;;;2.50;;
177;SDS011;77;48.792;9.032;2022-10-23T05:44:37;5.57;;;2.40;;
177;SDS011;77;48.792;9.032;2022-10-23T05:47:03;5.40;;;2.53;;
177;SDS011;77;48.792;9.032;2022-10-23T05:49:28;3.40;;;2.23;;
177;SDS011;77;48.792;9.032;2022-10-23T05:51:53;4.80;;;2.40;;
177;SDS011;77;48.792;9.032;2022-10-23T05:54:18;4.27;;;2.50;;
177;SDS011;77;48.792;9.032;2022-10-23T05:56:43;7.70;;;2.40;;
177;SDS011;77;48.792;9.032;2022-10-23T05:59:10;3.17;;;2.20;;
177;SDS011;77;48.792;9.032;2022-10-23T06:01:35;8.10;;;2.50;;
177;SDS011;77;48.792;9.032;2022-10-23T06:04:01;12.97;;;2.53;;
177;SDS011;77;48.792;9.032;2022-10-23T06:06:26;5.23;;;2.70;;
177;SDS011;77;48.792;9.032;2022-10-23T06:08:51;5.20;;;2.60;;
177;SDS011;77;48.792;9.032;2022-10-23T06:11:17;3.27;;;2.20;;
177;SDS011;77;48.792;9.032;2022-10-23T06:13:42;3.53;;;2.33;;
177;SDS011;77;48.792;9.032;2022-10-23T06:16:09;6.23;;;2.27;;
177;SDS011;77;48.792;9.032;2022-10-23T06:18:35;3.67;;;2.40;;
177;SDS011;77;48.792;9.032;2022-10-23T06:21:00;5.63;;;2.10;;
177;SDS011;77;48.792;9.032;2022-10-23T06:23:26;5.00;;;2.20;;
177;SDS011;77;48.792;9.032;2022-10-23T06:25:51;6.03;;;2.23;;
177;SDS011;77;48.792;9.032;2022-10-23T06:28:16;4.70;;;2.50;;
177;SDS011;77;48.792;9.032;2022-10-23T06:30:41;3.80;;;2.13;;
177;SDS011;77;48.792;9.032;2022-10-23T06:33:08;5.93;;;2.33;;
177;SDS011;77;48.792;9.032;2022-10-23T06:35:33;7.63;;;2.57;;
177;SDS011;77;48.792;9.032;2022-10-23T06:37:58;3.93;;;2.30;;
177;SDS011;77;48.792;9.032;2022-10-23T06:40:24;8.53;;;2.43;;
177;SDS011;77;48.792;9.032;2022-10-23T06:42:49;7.10;;;2.30;;
177;SDS011;77;48.792;9.032;2022-10-23T06:45:14;6.23;;;2.23;;
177;SDS011;77;48.792;9.032;2022-10-23T06:47:39;11.00;;;2.17;;
177;SDS011;77;48.792;9.032;2022-10-23T06:50:06;3.80;;;2.20;;
177;SDS011;77;48.792;9.032;2022-10-23T06:52:31;4.53;;;2.23;;
177;SDS011;77;48.792;9.032;2022-10-23T06:54:57;3.33;;;2.20;;
177;SDS011;77;48.792;9.032;2022-10-23T06:57:22;3.90;;;2.40;;
177;SDS011;77;48.792;9.032;2022-10-23T06:59:47;3.90;;;2.10;;
177;SDS011;77;48.792;9.032;2022-10-23T07:02:12;6.07;;;2.27;;
177;SDS011;77;48.792;9.032;2022-10-23T07:04:37;4.73;;;2.07;;
177;SDS011;77;48.792;9.032;2022-10-23T07:07:04;6.80;;;2.00;;
177;SDS011;77;48.792;9.032;2022-10-23T07:09:29;3.80;;;2.00;;
177;SDS011;77;48.792;9.032;2022-10-23T07:11:55;5.93;;;2.40;;
177;SDS011;77;48.792;9.032;2022-10-23T07:14:20;6.30;;;2.03;;
177;SDS011;77;48.792;9.032;2022-10-23T07:16:45;3.53;;;2.10;;
177;SDS011;77;48.792;9.032;2022-10-23T07:19:10;4.30;;;2.20;;
177;SDS011;77;48.792;9.032;2022-10-23T07:21:35;3.73;;;2.17;;
177;SDS011;77;48.792;9.032;2022-10-23T07:24:02;4.30;;;2.20;;
177;SDS011;77;48.792;9.032;2022-10-23T07:26:27;2.60;;;2.00;;
177;SDS011;77;48.792;9.032;2022-10-23T07:28:53;4.53;;;2.23;;
177;SDS011;77;48.792;9.032;2022-10-23T07:31:18;4.10;;;2.10;;
177;SDS011;77;48.792;9.032;2022-10-23T07:33:43;4.73;;;2.20;;
177;SDS011;77;48.792;9.032;2022-10-23T07:36:09;3.43;;;1.90;;
177;SDS011;77;48.792;9.032;2022-10-23T07:38:34;3.60;;;2.03;;
177;SDS011;77;48.792;9.032;2022-10-23T07:41:01;3.60;;;2.40;;
177;SDS011;77;48.792;9.032;2022-10-23T07:43:26;4.60;;;2.10;;
177;SDS011;77;48.792;9.032;2022-10-23T07:45:52;4.80;;;2.30;;
177;SDS011;77;48.792;9.032;2022-10-23T07:48:17;3.10;;;2.10;;
177;SDS011;77;48.792;9.032;2022-10-23T07:50:43;2.73;;;1.90;;
177;SDS011;77;48.792;9.032;2022-10-23T07:53:10;7.00;;;2.20;;
177;SDS011;77;48.792;9.032;2022-10-23T07:55:38;3.13;;;1.90;;
177;SDS011;77;48.792;9.032;2022-10-23T07:58:05;4.20;;;2.30;;
177;SDS011;77;48.792;9.032;2022-10-23T08:00:30;4.43;;;2.20;;
177;SDS011;77;48.792;9.032;2022-10-23T08:02:55;4.10;;;2.27;;
177;SDS011;77;48.792;9.032;2022-10-23T08:05:20;7.70;;;2.40;;
177;SDS011;77;48.792;9.032;2022-10-23T08:07:46;3.37;;;2.03;;
177;SDS011;77;48.792;9.032;2022-10-23T08:10:11;3.97;;;1.97;;
177;SDS011;77;48.792;9.032;2022-10-23T08:12:36;3.50;;;1.97;;
177;SDS011;77;48.792;9.032;2022-10-23T08:15:03;5.57;;;2.17;;
177;SDS011;77;48.792;9.032;2022-10-23T08:17:28;3.27;;;2.00;;
177;SDS011;77;48.792;9.032;2022-10-23T08:19:53;3.83;;;2.00;;
177;SDS011;77;48.792;9.032;2022-10-23T08:22:19;3.37;;;1.87;;
177;SDS011;77;48.792;9.032;2022-10-23T08:24:44;3.60;;;1.70;;
177;SDS011;77;48.792;9.032;2022-10-23T08:27:09;2.77;;;1.90;;
177;SDS011;77;48.792;9.032;2022-10-23T08:29:34;3.23;;;2.17;;
177;SDS011;77;48.792;9.032;2022-10-23T08:32:01;3.53;;;2.10;;
177;SDS011;77;48.792;9.032;2022-10-23T08:34:26;4.27;;;2.10;;
177;SDS011;77;48.792;9.032;2022-10-23T08:36:51;2.97;;;1.90;;
177;SDS011;77;48.792;9.032;2022-10-23T08:39:17;3.77;;;2.10;;
177;SDS011;77;48.792;9.032;2022-10-23T08:41:42;4.40;;;2.20;;
177;SDS011;77;48.792;9.032;2022-10-23T08:44:12;2.77;;;1.93;;
177;SDS011;77;48.792;9.032;2022-10-23T08:46:43;6.97;;;2.00;;
177;SDS011;77;48.792;9.032;2022-10-23T08:49:16;2.67;;;1.87;;
177;SDS011;77;48.792;9.032;2022-10-23T08:51:43;4.60;;;2.30;;
177;SDS011;77;48.792;9.032;2022-10-23T08:54:11;3.60;;;1.80;;
177;SDS011;77;48.792;9.032;2022-10-23T08:56:37;3.63;;;1.90;;
177;SDS011;77;48.792;9.032;2022-10-23T08:59:03;2.43;;;1.70;;
177;SDS011;77;48.792;9.032;2022-10-23T09:01:32;3.70;;;1.80;;
177;SDS011;77;48.792;9.032;2022-10-23T09:04:00;5.37;;;1.90;;
177;SDS011;77;48.792;9.032;2022-10-23T09:06:30;2.60;;;1.90;;
177;SDS011;77;48.792;9.032;2022-10-23T09:08:58;2.57;;;1.90;;
177;SDS011;77;48.792;9.032;2022-10-23T09:11:30;3.63;;;1.90;;
177;SDS011;77;48.792;9.032;2022-10-23T09:14:15;4.33;;;1.90;;
177;SDS011;77;48.792;9.032;2022-10-23T09:16:46;4.20;;;1.80;;
177;SDS011;77;48.792;9.032;2022-10-23T09:19:16;3.50;;;1.70;;
177;SDS011;77;48.792;9.032;2022-10-23T09:21:44;2.70;;;1.90;;
177;SDS011;77;48.792;9.032;2022-10-23T09:24:11;3.27;;;2.00;;
177;SDS011;77;48.792;9.032;2022-10-23T09:26:38;3.70;;;1.90;;
177;SDS011;77;48.792;9.032;2022-10-23T09:29:05;4.13;;;2.03;;
177;SDS011;77;48.792;9.032;2022-10-23T09:31:33;3.03;;;2.10;;
177;SDS011;77;48.792;9.032;2022-10-23T09:33:58;3.50;;;1.97;;
177;SDS011;77;48.792;9.032;2022-10-23T09:36:24;3.33;;;1.90;;
177;SDS011;77;48.792;9.032;2022-10-23T09:38:51;2.90;;;1.90;;
177;SDS011;77;48.792;9.032;2022-10-23T09:41:18;4.87;;;2.00;;
177;SDS011;77;48.792;9.032;2022-10-23T09:43:44;4.00;;;1.80;;
177;SDS011;77;48.792;9.032;2022-10-23T09:46:09;5.93;;;2.00;;
177;SDS011;77;48.792;9.032;2022-10-23T09:48:35;3.10;;;1.90;;
177;SDS011;77;48.792;9.032;2022-10-23T09:51:01;2.90;;;1.90;;
177;SDS011;77;48.792;9.032;2022-10-23T09:53:31;4.67;;;2.00;;
177;SDS011;77;48.792;9.032;2022-10-23T09:55:59;6.83;;;2.20;;
177;SDS011;77;48.792;9.032;2022-10-23T09:58:28;4.20;;;2.03;;
177;SDS011;77;48.792;9.032;2022-10-23T10:00:54;2.80;;;1.90;;
177;SDS011;77;48.792;9.032;2022-10-23T10:03:20;3.90;;;1.90;;
177;SDS011;77;48.792;9.032;2022-10-23T10:05:52;3.63;;;1.90;;
177;SDS011;77;48.792;9.032;2022-10-23T10:08:20;3.23;;;2.10;;
177;SDS011;77;48.792;9.032;2022-10-23T10:10:46;2.77;;;1.90;;
177;SDS011;77;48.792;9.032;2022-10-23T10:13:17;2.70;;;1.80;;
177;SDS011;77;48.792;9.032;2022-10-23T10:15:49;2.73;;;1.87;;
177;SDS011;77;48.792;9.032;2022-10-23T10:18:16;4.93;;;1.90;;
177;SDS011;77;48.792;9.032;2022-10-23T10:20:51;3.27;;;1.80;;
177;SDS011;77;48.792;9.032;2022-10-23T10:23:21;4.77;;;2.00;;
177;SDS011;77;48.792;9.032;2022-10-23T10:25:51;3.03;;;1.90;;
177;SDS011;77;48.792;9.032;2022-10-23T10:28:25;7.00;;;2.00;;
177;SDS011;77;48.792;9.032;2022-10-23T10:30:56;3.83;;;2.00;;
177;SDS011;77;48.792;9.032;2022-10-23T10:33:24;3.87;;;2.20;;
177;SDS011;77;48.792;9.032;2022-10-23T10:35:54;3.63;;;2.00;;
177;SDS011;77;48.792;9.032;2022-10-23T10:41:18;3.27;;;2.10;;
177;SDS011;77;48.792;9.032;2022-10-23T10:43:49;2.90;;;1.90;;
177;SDS011;77;48.792;9.032;2022-10-23T10:46:17;4.13;;;1.90;;
177;SDS011;77;48.792;9.032;2022-10-23T10:48:46;2.60;;;1.80;;
177;SDS011;77;48.792;9.032;2022-10-23T10:51:14;3.40;;;1.90;;
177;SDS011;77;48.792;9.032;2022-10-23T10:53:45;5.27;;;1.83;;
177;SDS011;77;48.792;9.032;2022-10-23T10:56:15;4.87;;;1.70;;
177;SDS011;77;48.792;9.032;2022-10-23T10:58:43;4.73;;;1.70;;
177;SDS011;77;48.792;9.032;2022-10-23T11:01:14;3.17;;;1.87;;
177;SDS011;77;48.792;9.032;2022-10-23T11:03:42;3.20;;;1.80;;
177;SDS011;77;48.792;9.032;2022-10-23T11:06:11;2.87;;;2.03;;
177;SDS011;77;48.792;9.032;2022-10-23T11:08:37;3.40;;;1.60;;
177;SDS011;77;48.792;9.032;2022-10-23T11:11:04;3.83;;;1.87;;
177;SDS011;77;48.792;9.032;2022-10-23T11:13:32;4.30;;;1.80;;
177;SDS011;77;48.792;9.032;2022-10-23T11:15:59;2.67;;;1.70;;
177;SDS011;77;48.792;9.032;2022-10-23T11:18:27;8.77;;;1.70;;
177;SDS011;77;48.792;9.032;2022-10-23T11:20:56;3.23;;;1.70;;
177;SDS011;77;48.792;9.032;2022-10-23T11:23:31;2.40;;;1.70;;
177;SDS011;77;48.792;9.032;2022-10-23T11:26:01;4.17;;;1.70;;
177;SDS011;77;48.792;9.032;2022-10-23T11:28:31;2.20;;;1.60;;
177;SDS011;77;48.792;9.032;2022-10-23T11:31:02;4.07;;;1.80;;
177;SDS011;77;48.792;9.032;2022-10-23T11:33:43;2.60;;;1.83;;
177;SDS011;77;48.792;9.032;2022-10-23T11:36:15;2.50;;;1.90;;
177;SDS011;77;48.792;9.032;2022-10-23T11:38:42;4.33;;;1.90;;
177;SDS011;77;48.792;9.032;2022-10-23T11:41:15;2.73;;;1.73;;
177;SDS011;77;48.792;9.032;2022-10-23T11:43:46;4.53;;;1.80;;
177;SDS011;77;48.792;9.032;2022-10-23T11:46:12;4.53;;;1.77;;
177;SDS011;77;48.792;9.032;2022-10-23T11:48:38;2.50;;;1.73;;
177;SDS011;77;48.792;9.032;2022-10-23T11:51:05;3.43;;;1.70;;
177;SDS011;77;48.792;9.032;2022-10-23T11:53:37;4.00;;;1.90;;
177;SDS011;77;48.792;9.032;2022-10-23T11:56:03;3.23;;;1.90;;
177;SDS011;77;48.792;9.032;2022-10-23T11:58:39;2.50;;;1.60;;
177;SDS011;77;48.792;9.032;2022-10-23T12:01:14;3.47;;;2.17;;
177;SDS011;77;48.792;9.032;2022-10-23T12:03:46;3.37;;;1.70;;
177;SDS011;77;48.792;9.032;2022-10-23T12:06:17;6.30;;;1.80;;
177;SDS011;77;48.792;9.032;2022-10-23T12:08:44;3.90;;;1.97;;
177;SDS011;77;48.792;9.032;2022-10-23T12:11:24;4.10;;;1.87;;
177;SDS011;77;48.792;9.032;2022-10-23T12:13:49;2.30;;;1.60;;
177;SDS011;77;48.792;9.032;2022-10-23T12:16:15;3.40;;;1.87;;
177;SDS011;77;48.792;9.032;2022-10-23T12:18:47;3.43;;;1.93;;
177;SDS011;77;48.792;9.032;2022-10-23T12:21:14;2.60;;;1.80;;
177;SDS011;77;48.792;9.032;2022-10-23T12:23:54;5.00;;;1.80;;
177;SDS011;77;48.792;9.032;2022-10-23T12:26:27;5.37;;;2.20;;
177;SDS011;77;48.792;9.032;2022-10-23T12:28:58;5.80;;;1.90;;
177;SDS011;77;48.792;9.032;2022-10-23T12:31:28;2.77;;;1.80;;
177;SDS011;77;48.792;9.032;2022-10-23T12:33:59;3.83;;;1.80;;
177;SDS011;77;48.792;9.032;2022-10-23T12:36:38;4.10;;;1.90;;
177;SDS011;77;48.792;9.032;2022-10-23T12:41:48;5.80;;;1.93;;
177;SDS011;77;48.792;9.032;2022-10-23T12:44:13;2.87;;;1.80;;
177;SDS011;77;48.792;9.032;2022-10-23T12:46:39;3.00;;;1.80;;
177;SDS011;77;48.792;9.032;2022-10-23T12:49:12;2.20;;;1.67;;
177;SDS011;77;48.792;9.032;2022-10-23T12:51:37;4.63;;;1.90;;
177;SDS011;77;48.792;9.032;2022-10-23T12:54:03;5.13;;;1.70;;
177;SDS011;77;48.792;9.032;2022-10-23T12:56:38;2.60;;;1.80;;
177;SDS011;77;48.792;9.032;2022-10-23T12:59:09;3.40;;;1.90;;
177;SDS011;77;48.792;9.032;2022-10-23T13:01:36;4.83;;;2.00;;
177;SDS011;77;48.792;9.032;2022-10-23T13:04:01;2.70;;;2.00;;
177;SDS011;77;48.792;9.032;2022-10-23T13:06:29;2.23;;;1.50;;
177;SDS011;77;48.792;9.032;2022-10-23T13:08:55;3.07;;;1.80;;
177;SDS011;77;48.792;9.032;2022-10-23T13:11:21;4.60;;;1.63;;
177;SDS011;77;48.792;9.032;2022-10-23T13:13:47;4.40;;;1.60;;
177;SDS011;77;48.792;9.032;2022-10-23T13:16:14;3.50;;;1.77;;
177;SDS011;77;48.792;9.032;2022-10-23T13:18:40;3.83;;;1.70;;
177;SDS011;77;48.792;9.032;2022-10-23T13:21:09;2.50;;;1.80;;
177;SDS011;77;48.792;9.032;2022-10-23T13:23:38;3.70;;;1.60;;
177;SDS011;77;48.792;9.032;2022-10-23T13:26:04;6.23;;;1.87;;
177;SDS011;77;48.792;9.032;2022-10-23T13:28:30;4.73;;;1.93;;
177;SDS011;77;48.792;9.032;2022-10-23T13:30:57;4.07;;;2.30;;
177;SDS011;77;48.792;9.032;2022-10-23T13:33:25;2.50;;;1.80;;
177;SDS011;77;48.792;9.032;2022-10-23T13:35:54;2.83;;;2.10;;
177;SDS011;77;48.792;9.032;2022-10-23T13:38:26;3.70;;;2.30;;
177;SDS011;77;48.792;9.032;2022-10-23T13:40:54;4.83;;;2.40;;
177;SDS011;77;48.792;9.032;2022-10-23T13:43:19;4.50;;;2.60;;
177;SDS011;77;48.792;9.032;2022-10-23T13:45:44;5.47;;;2.30;;
177;SDS011;77;48.792;9.032;2022-10-23T13:48:10;4.40;;;2.33;;
177;SDS011;77;48.792;9.032;2022-10-23T13:50:38;5.67;;;2.20;;
177;SDS011;77;48.792;9.032;2022-10-23T13:53:04;3.17;;;2.30;;
177;SDS011;77;48.792;9.032;2022-10-23T13:55:29;4.13;;;2.17;;
177;SDS011;77;48.792;9.032;2022-10-23T13:57:55;4.23;;;2.40;;
177;SDS011;77;48.792;9.032;2022-10-23T14:00:20;4.53;;;2.17;;
177;SDS011;77;48.792;9.032;2022-10-23T14:02:45;4.30;;;2.30;;
177;SDS011;77;48.792;9.032;2022-10-23T14:05:11;4.50;;;2.33;;
177;SDS011;77;48.792;9.032;2022-10-23T14:07:37;3.90;;;2.13;;
177;SDS011;77;48.792;9.032;2022-10-23T14:10:03;4.50;;;2.53;;
177;SDS011;77;48.792;9.032;2022-10-23T14:12:28;4.00;;;2.27;;
177;SDS011;77;48.792;9.032;2022-10-23T14:14:53;3.80;;;2.00;;
177;SDS011;77;48.792;9.032;2022-10-23T14:17:19;5.50;;;2.10;;
177;SDS011;77;48.792;9.032;2022-10-23T14:19:44;6.63;;;2.10;;
177;SDS011;77;48.792;9.032;2022-10-23T14:22:09;6.57;;;2.23;;
177;SDS011;77;48.792;9.032;2022-10-23T14:24:36;3.00;;;1.83;;
177;SDS011;77;48.792;9.032;2022-10-23T14:27:01;3.50;;;1.90;;
177;SDS011;77;48.792;9.032;2022-10-23T14:29:26;4.73;;;2.10;;
177;SDS011;77;48.792;9.032;2022-10-23T14:31:51;4.07;;;2.30;;
177;SDS011;77;48.792;9.032;2022-10-23T14:34:17;3.30;;;1.90;;
177;SDS011;77;48.792;9.032;2022-10-23T14:36:42;5.40;;;2.07;;
177;SDS011;77;48.792;9.032;2022-10-23T14:39:07;5.97;;;2.30;;
177;SDS011;77;48.792;9.032;2022-10-23T14:41:34;3.80;;;2.00;;
177;SDS011;77;48.792;9.032;2022-10-23T14:43:59;3.97;;;2.10;;
177;SDS011;77;48.792;9.032;2022-10-23T14:46:24;4.30;;;2.00;;
177;SDS011;77;48.792;9.032;2022-10-23T14:48:50;3.57;;;2.10;;
177;SDS011;77;48.792;9.032;2022-10-23T14:51:16;3.63;;;2.00;;
177;SDS011;77;48.792;9.032;2022-10-23T14:53:42;4.57;;;2.23;;
177;SDS011;77;48.792;9.032;2022-10-23T14:56:07;3.83;;;2.40;;
177;SDS011;77;48.792;9.032;2022-10-23T14:58:34;3.97;;;1.93;;
177;SDS011;77;48.792;9.032;2022-10-23T15:00:59;4.60;;;2.27;;
177;SDS011;77;48.792;9.032;2022-10-23T15:03:25;7.47;;;2.23;;
177;SDS011;77;48.792;9.032;2022-10-23T15:05:50;5.10;;;2.13;;
177;SDS011;77;48.792;9.032;2022-10-23T15:08:15;4.53;;;2.13;;
177;SDS011;77;48.792;9.032;2022-10-23T15:10:40;3.40;;;2.10;;
177;SDS011;77;48.792;9.032;2022-10-23T15:13:05;4.80;;;2.30;;
177;SDS011;77;48.792;9.032;2022-10-23T15:15:32;6.30;;;2.27;;
177;SDS011;77;48.792;9.032;2022-10-23T15:17:57;5.80;;;2.40;;
177;SDS011;77;48.792;9.032;2022-10-23T15:20:22;7.07;;;2.40;;
177;SDS011;77;48.792;9.032;2022-10-23T15:22:48;3.40;;;2.10;;
177;SDS011;77;48.792;9.032;2022-10-23T15:25:13;4.20;;;2.00;;
177;SDS011;77;48.792;9.032;2022-10-23T15:27:38;3.00;;;2.00;;
177;SDS011;77;48.792;9.032;2022-10-23T15:30:04;4.27;;;2.13;;
177;SDS011;77;48.792;9.032;2022-10-23T15:32:30;6.87;;;2.20;;
177;SDS011;77;48.792;9.032;2022-10-23T15:34:56;5.47;;;1.80;;
177;SDS011;77;48.792;9.032;2022-10-23T15:37:21;5.27;;;2.17;;
177;SDS011;77;48.792;9.032;2022-10-23T15:39:46;4.63;;;2.10;;
177;SDS011;77;48.792;9.032;2022-10-23T15:42:11;2.73;;;1.80;;
177;SDS011;77;48.792;9.032;2022-10-23T15:44:36;8.37;;;2.40;;
177;SDS011;77;48.792;9.032;2022-10-23T15:47:03;7.20;;;2.00;;
177;SDS011;77;48.792;9.032;2022-10-23T15:49:30;6.50;;;2.17;;
177;SDS011;77;48.792;9.032;2022-10-23T15:51:55;4.70;;;2.10;;
177;SDS011;77;48.792;9.032;2022-10-23T15:54:20;5.20;;;2.30;;
177;SDS011;77;48.792;9.032;2022-10-23T15:56:46;3.20;;;2.23;;
177;SDS011;77;48.792;9.032;2022-10-23T15:59:12;3.93;;;2.33;;
177;SDS011;77;48.792;9.032;2022-10-23T16:01:37;4.90;;;2.10;;
177;SDS011;77;48.792;9.032;2022-10-23T16:04:02;5.47;;;2.17;;